Main page
METAR-TAF:

METAR-TAF

Airports :

RAF Valley

Valley, Wales

latitude: 53-15N, longitude: 004-32W, elevation: 1 m

Current weather observation

The report was made 39 minutes ago, at 13:50 UTC
Wind 26 kt from the South
Temperature 13°C
Humidity 82%
Pressure 1014 hPa
Visibility 10 km or more
Overcast at a height of 2500 ft

METAR: EGOV 141350Z 18026KT 9999 OVC025 13/10 Q1014 BLU

Time: 14:29 (14:29 UTC)

Forecast

The report was made 3 hours and 53 minutes ago, at 10:36 UTC
Forecast valid from 14 at 12 UTC to 14 at 20 UTC
Wind 21 kt from the South with gusts up to 31 kt
Visibility: 7000 m
Broken clouds at a height of 700 ft
light rain, drizzle
Becoming
from 14 at 12 UTC to 14 at 14 UTC
Visibility 10 km or more
Broken clouds at a height of 2500 ft
Probability 40% :
Temporary
from 14 at 14 UTC to 14 at 18 UTC
Broken clouds at a height of 1800 ft

TAF: EGOV 141036Z 1412/1420 18021G31KT 7000 -RADZ BKN007 BECMG 1412/1414 9999 NSW BKN025 PROB40 TEMPO 1414/1418 BKN018

Weather observations and forecasts of more than 4000 airports (METAR and TAF reports).

The available stations are represented by yellow and red dots on the map.

Hover mouse over dot to see the name of the station.

Then click to see weather observations and forecasts.

To change the map : click on the green buttons with a black cross to zoom in, on the green button with a dash to zoom out, or on the green arrows for adjacent maps.


METAR-TAF: